Time;durP1;ratioP1;P1;durP2;ratioP2;P2;SDS_P1;SDS_P2;PMS_P1;PMS_P2;Temp;Humidity;BMP_temperature;BMP_pressure;BME280_temperature;BME280_humidity;BME280_pressure;Samples;Min_cycle;Max_cycle;Signal;HPM_P1;HPM_P2
2021/12/12 00:00:32;;;;;;;2.83;2.45;;;19.80;39.70;;;23.47;26.48;101723.50;5094410;28;20552;-76
2021/12/12 00:03:14;;;;;;;2.40;2.13;;;19.80;39.70;;;23.46;26.54;101725.31;5095381;28;20399;-76
2021/12/12 00:05:50;;;;;;;2.40;2.20;;;19.80;39.70;;;23.47;26.54;101729.72;5096496;28;20051;-76
2021/12/12 00:08:19;;;;;;;3.00;2.45;;;19.80;39.70;;;23.45;26.56;101718.25;5113970;28;20043;-76
2021/12/12 00:10:58;;;;;;;2.60;2.28;;;19.90;39.70;;;23.45;26.81;101736.94;5095316;28;20071;-76
2021/12/12 00:13:36;;;;;;;2.00;1.80;;;19.80;39.70;;;23.46;26.76;101736.00;5095373;28;20051;-76
2021/12/12 00:16:02;;;;;;;2.05;1.85;;;19.80;39.70;;;23.48;26.38;101738.56;5061209;28;20063;-76
2021/12/12 00:18:28;;;;;;;3.17;2.38;;;19.80;39.70;;;23.47;26.52;101734.19;5094808;28;20479;-76
2021/12/12 00:20:54;;;;;;;2.80;2.13;;;19.80;39.70;;;23.45;26.43;101723.59;5095004;28;20540;-76
2021/12/12 00:23:21;;;;;;;3.17;2.22;;;19.80;39.70;;;23.47;26.65;101724.38;5095155;28;20052;-76
2021/12/12 00:25:52;;;;;;;2.75;2.35;;;19.80;39.70;;;23.46;26.55;101714.66;5095611;28;20101;-76
2021/12/12 00:28:21;;;;;;;2.47;2.10;;;19.80;39.70;;;23.45;26.55;101718.25;5074259;28;20048;-76
2021/12/12 00:30:53;;;;;;;2.60;2.33;;;19.80;39.70;;;23.45;26.75;101728.06;5095029;28;20051;-76
2021/12/12 00:33:22;;;;;;;2.33;2.00;;;19.80;39.70;;;23.46;26.57;101733.31;5094998;28;20044;-76
2021/12/12 00:35:50;;;;;;;2.38;2.17;;;19.80;39.70;;;23.42;26.65;101713.13;5076114;28;20094;-76
2021/12/12 00:38:26;;;;;;;2.70;2.10;;;19.80;39.70;;;23.46;26.56;101719.97;5094680;28;20360;-76
2021/12/12 00:41:00;;;;;;;2.13;1.92;;;19.80;39.70;;;23.45;26.60;101706.72;5095232;28;20056;-76
2021/12/12 00:43:45;;;;;;;2.90;2.00;;;19.80;39.70;;;23.47;26.65;101713.72;5094745;28;20040;-76
2021/12/12 00:46:13;;;;;;;2.72;2.25;;;19.80;39.70;;;23.49;26.72;101713.63;5094748;28;20047;-76
2021/12/12 00:48:44;;;;;;;2.35;2.10;;;19.80;39.70;;;23.45;26.48;101707.56;5077625;28;20056;-76
2021/12/12 00:51:16;;;;;;;2.97;2.20;;;19.80;39.70;;;23.48;26.65;101714.56;5095107;28;20050;-76
2021/12/12 00:53:43;;;;;;;2.20;1.90;;;19.80;39.70;;;23.48;26.48;101706.53;5094960;28;20090;-76
2021/12/12 00:56:11;;;;;;;2.40;2.17;;;19.80;39.70;;;23.46;26.55;101706.63;5077956;28;20048;-76
2021/12/12 00:58:37;;;;;;;2.28;2.08;;;19.80;39.70;;;23.47;26.47;101705.69;5077569;28;20079;-76
2021/12/12 01:01:18;;;;;;;2.92;2.42;;;19.80;39.70;;;23.45;26.61;101706.72;5094848;28;20040;-76
2021/12/12 01:03:52;;;;;;;2.33;2.10;;;19.80;39.70;;;23.47;26.52;101713.72;5077661;28;20114;-76
2021/12/12 01:06:23;;;;;;;3.40;2.63;;;19.80;39.70;;;23.46;26.66;101705.78;5094868;28;20514;-76
2021/12/12 01:08:51;;;;;;;2.45;2.17;;;19.90;39.70;;;23.47;26.44;101708.38;5111328;28;20043;-76
2021/12/12 01:11:29;;;;;;;2.17;1.98;;;19.80;39.70;;;23.45;26.49;101699.56;5111670;28;20441;-76
2021/12/12 01:13:55;;;;;;;2.42;1.98;;;19.80;39.70;;;23.46;26.48;101714.66;5112743;28;20075;-76
2021/12/12 01:16:34;;;;;;;2.35;2.10;;;19.80;39.70;;;23.44;26.50;101710.38;5094140;28;20055;-76
2021/12/12 01:19:22;;;;;;;1.73;1.60;;;19.80;39.70;;;23.43;26.37;101709.47;5092502;28;20055;-76
2021/12/12 01:21:55;;;;;;;2.78;2.40;;;19.80;39.70;;;23.47;26.38;101720.84;5111148;28;20051;-76
2021/12/12 01:24:32;;;;;;;2.08;1.83;;;19.80;39.70;;;23.43;26.45;101711.31;5077476;28;20051;-76
2021/12/12 01:27:03;;;;;;;2.22;1.92;;;19.80;39.70;;;23.44;26.59;101702.34;5093614;28;20105;-76
2021/12/12 01:29:29;;;;;;;1.77;1.48;;;19.80;39.70;;;23.49;26.38;101717.13;5097872;28;20040;-76
2021/12/12 01:31:56;;;;;;;2.28;2.08;;;19.80;39.70;;;23.47;26.55;101713.72;5097589;28;20055;-76
2021/12/12 01:34:28;;;;;;;2.13;1.92;;;19.80;39.70;;;23.43;26.68;101704.16;5097627;28;20051;-76
2021/12/12 01:37:33;;;;;;;2.80;2.50;;;19.80;39.70;;;23.45;26.75;101722.75;5095820;28;20404;-76
2021/12/12 01:40:12;;;;;;;2.75;2.17;;;19.80;39.70;;;23.45;26.45;101726.25;5100574;28;20063;-76
2021/12/12 01:42:56;;;;;;;2.17;1.98;;;19.80;39.70;;;23.47;26.60;101732.38;5097711;28;20054;-76
2021/12/12 01:45:47;;;;;;;2.20;2.00;;;19.80;39.70;;;23.45;26.45;101731.59;5096864;28;20063;-76
2021/12/12 01:48:21;;;;;;;2.75;2.38;;;19.80;39.70;;;23.44;26.56;101729.03;5097431;28;20083;-76
2021/12/12 01:50:54;;;;;;;2.13;1.92;;;19.80;39.70;;;23.45;26.42;101736.09;5080449;28;20069;-76
2021/12/12 01:53:26;;;;;;;3.35;2.10;;;19.80;39.70;;;23.44;26.54;101729.91;5081008;28;20450;-76
2021/12/12 01:56:11;;;;;;;3.35;2.10;;;19.80;39.70;;;23.46;26.55;101737.81;5096825;28;20407;-76
2021/12/12 01:58:38;;;;;;;2.00;1.85;;;19.80;39.70;;;23.45;26.39;101730.75;5115893;28;20062;-76
2021/12/12 02:01:10;;;;;;;2.25;2.05;;;19.80;39.70;;;23.43;26.38;101730.84;5097358;28;20413;-76
2021/12/12 02:03:45;;;;;;;2.22;2.03;;;19.80;39.70;;;23.43;26.34;101730.84;5114383;28;20039;-76
2021/12/12 02:06:15;;;;;;;2.30;1.85;;;19.80;39.70;;;23.47;26.81;101744.84;5097457;28;20463;-76
2021/12/12 02:08:42;;;;;;;2.50;2.20;;;19.80;39.70;;;23.45;26.42;101741.41;5097551;28;20490;-76
2021/12/12 02:11:16;;;;;;;2.25;1.92;;;19.80;39.70;;;23.44;26.50;101737.06;5097373;28;20039;-76
2021/12/12 02:13:50;;;;;;;2.42;2.10;;;19.80;39.70;;;23.44;26.50;101732.56;5114399;28;20040;-76
2021/12/12 02:16:18;;;;;;;1.95;1.83;;;19.80;39.70;;;23.44;26.49;101732.56;5096973;28;20139;-76
2021/12/12 02:18:49;;;;;;;2.35;2.05;;;19.80;39.70;;;23.46;26.40;101721.81;5094622;28;20105;-76
2021/12/12 02:21:33;;;;;;;2.30;2.10;;;19.80;39.70;;;23.45;26.59;101728.94;5097543;28;20395;-76
2021/12/12 02:35:42;;;;;;;2.20;1.88;;;19.80;39.70;;;23.43;26.42;101728.16;5096644;28;20134;-76
2021/12/12 02:38:19;;;;;;;2.88;2.15;;;19.80;39.70;;;23.45;26.36;101730.75;5097835;28;20107;-76
2021/12/12 02:40:54;;;;;;;2.30;2.10;;;19.80;39.70;;;23.42;26.53;101725.59;5096760;28;20085;-76
2021/12/12 02:43:25;;;;;;;2.65;2.30;;;19.80;39.60;;;23.45;26.47;101722.75;5096831;28;20052;-76
2021/12/12 02:45:55;;;;;;;2.20;1.83;;;19.80;39.60;;;23.46;26.42;101728.00;5097071;28;20061;-76
2021/12/12 02:48:28;;;;;;;2.35;2.08;;;19.80;39.70;;;23.44;26.53;101729.91;5096811;28;20043;-76
2021/12/12 02:50:55;;;;;;;2.15;1.70;;;19.80;39.70;;;23.43;26.67;101725.50;5115148;28;20040;-76
2021/12/12 02:53:31;;;;;;;2.22;1.90;;;19.90;39.70;;;23.46;26.74;101733.31;5080048;28;20055;-76
2021/12/12 02:56:04;;;;;;;2.90;2.13;;;19.80;39.60;;;23.44;26.65;101719.22;5079782;28;20051;-76
2021/12/12 02:58:30;;;;;;;2.65;2.42;;;19.80;39.60;;;23.47;26.64;101726.16;5096016;28;20399;-76
2021/12/12 03:01:20;;;;;;;2.28;2.08;;;19.80;39.60;;;23.44;26.56;101718.38;5096338;28;20126;-76
2021/12/12 03:03:47;;;;;;;2.25;2.03;;;19.80;39.60;;;23.48;26.42;101725.22;5113313;28;20043;-76
2021/12/12 03:06:20;;;;;;;2.20;1.85;;;19.80;39.60;;;23.45;26.53;101720.06;5096499;28;20392;-76
2021/12/12 03:08:54;;;;;;;2.83;2.30;;;19.80;39.60;;;23.46;26.56;101725.31;5096010;28;20052;-76
2021/12/12 03:11:21;;;;;;;2.28;2.03;;;19.80;39.60;;;23.47;26.55;101723.50;5096313;28;20054;-76
2021/12/12 03:13:47;;;;;;;2.22;1.73;;;19.80;39.60;;;23.47;26.67;101721.72;5095882;28;20414;-76
2021/12/12 03:16:13;;;;;;;2.42;1.92;;;19.80;39.70;;;23.46;26.72;101716.47;5096203;28;20058;-76
2021/12/12 03:18:43;;;;;;;2.50;2.10;;;19.80;39.60;;;23.45;26.49;101715.59;5096671;28;20059;-76
2021/12/12 03:21:30;;;;;;;2.50;2.15;;;19.80;39.60;;;23.44;26.67;101713.03;5096102;28;20553;-76
2021/12/12 03:24:06;;;;;;;2.67;2.30;;;19.90;39.70;;;23.45;26.39;101718.25;5096357;28;20040;-76
2021/12/12 03:26:33;;;;;;;2.97;2.22;;;19.80;39.60;;;23.46;26.49;101716.47;5114606;28;20134;-76
2021/12/12 03:29:01;;;;;;;2.28;2.00;;;19.90;39.60;;;23.44;26.54;101716.56;5077878;28;20074;-76
2021/12/12 03:31:51;;;;;;;2.20;2.00;;;19.80;39.60;;;23.47;26.65;101726.16;5096241;28;20217;-76
2021/12/12 03:34:22;;;;;;;2.10;1.90;;;19.80;39.60;;;23.47;26.58;101712.81;5078900;28;20056;-76
2021/12/12 03:36:49;;;;;;;2.08;1.88;;;19.80;39.60;;;23.49;26.56;101713.63;5114002;28;20051;-76
2021/12/12 03:39:24;;;;;;;3.55;1.90;;;19.80;39.60;;;23.45;26.27;101712.06;5095855;28;20040;-76
2021/12/12 03:41:51;;;;;;;2.30;2.10;;;19.80;39.60;;;23.47;26.47;101720.84;5078858;28;20498;-76
2021/12/12 03:44:22;;;;;;;2.60;2.15;;;19.80;39.60;;;23.46;26.60;101725.31;5095977;28;20491;-76
2021/12/12 03:46:53;;;;;;;2.08;1.88;;;19.80;39.60;;;23.48;26.69;101725.22;5095644;28;20059;-76
2021/12/12 03:49:21;;;;;;;2.38;2.00;;;19.80;39.60;;;23.43;26.38;101719.31;5095087;28;20092;-76
2021/12/12 03:51:48;;;;;;;1.90;1.70;;;19.90;39.70;;;23.48;26.55;101739.44;5094268;28;20044;-76
2021/12/12 03:54:15;;;;;;;2.42;2.20;;;19.80;39.60;;;23.43;26.48;101730.84;5095796;28;20043;-76
2021/12/12 03:56:42;;;;;;;2.15;1.92;;;19.80;39.70;;;23.43;26.65;101720.16;5113984;28;20126;-76
2021/12/12 03:59:09;;;;;;;2.17;1.90;;;19.80;39.70;;;23.43;26.51;101717.50;5095587;28;20063;-76
2021/12/12 04:01:40;;;;;;;1.90;1.80;;;19.80;39.60;;;23.47;26.39;101724.38;5094955;28;20058;-76
2021/12/12 04:04:29;;;;;;;2.20;1.85;;;19.80;39.60;;;23.45;26.53;101718.25;5095796;28;20055;-76
2021/12/12 04:06:57;;;;;;;1.95;1.70;;;19.80;39.70;;;23.47;26.48;101727.06;5093717;28;20048;-76
2021/12/12 04:09:25;;;;;;;2.00;1.80;;;19.80;39.60;;;23.41;26.47;101724.72;5094842;28;20566;-76
2021/12/12 04:12:01;;;;;;;3.10;2.15;;;19.80;39.60;;;23.43;26.40;101732.66;5095425;28;20048;-76
2021/12/12 04:14:28;;;;;;;2.20;2.00;;;19.80;39.60;;;23.46;26.49;101736.00;5113561;28;20139;-76
2021/12/12 04:16:58;;;;;;;3.05;2.08;;;19.80;39.60;;;23.46;26.45;101732.47;5094737;28;20044;-76
2021/12/12 04:19:26;;;;;;;1.98;1.80;;;19.80;39.60;;;23.46;26.58;101736.00;5095189;28;20047;-76
2021/12/12 04:21:52;;;;;;;2.28;1.92;;;19.80;39.60;;;23.45;26.61;101736.94;5094718;28;20056;-76
2021/12/12 04:24:25;;;;;;;2.63;2.33;;;19.80;39.60;;;23.43;26.49;101738.84;5094993;28;20047;-76
2021/12/12 04:26:52;;;;;;;1.95;1.77;;;19.80;39.60;;;23.48;26.59;101742.09;5095116;28;20047;-76
2021/12/12 04:29:32;;;;;;;2.10;1.90;;;19.90;39.70;;;23.46;26.57;101740.47;5093493;28;20048;-76
2021/12/12 04:32:06;;;;;;;1.98;1.83;;;19.80;39.60;;;23.46;26.56;101743.16;5078892;28;20054;-76
2021/12/12 04:34:38;;;;;;;2.25;2.05;;;19.90;39.60;;;23.45;26.64;101744.94;5078048;28;20036;-76
2021/12/12 04:37:05;;;;;;;2.00;1.90;;;19.80;39.60;;;23.46;26.49;101745.81;5095570;28;20490;-76
2021/12/12 04:39:42;;;;;;;2.40;2.20;;;19.80;39.60;;;23.42;26.61;101734.47;5077843;28;20051;-76
2021/12/12 04:42:26;;;;;;;2.60;2.30;;;19.90;39.70;;;23.44;26.71;101737.06;5077956;28;20130;-76
2021/12/12 04:45:07;;;;;;;2.97;2.55;;;19.80;39.60;;;23.43;26.67;101736.16;5113002;28;20043;-76
2021/12/12 04:50:32;;;;;;;2.38;1.80;;;19.80;39.60;;;23.47;26.50;101735.06;5094165;28;20089;-76
2021/12/12 04:53:29;;;;;;;2.22;2.03;;;19.80;39.60;;;23.47;26.67;101726.16;5094343;28;20449;-76
2021/12/12 04:56:16;;;;;;;2.50;2.22;;;19.80;39.60;;;23.44;26.61;101721.03;5094590;28;20075;-76
2021/12/12 04:58:58;;;;;;;2.53;2.22;;;19.80;39.60;;;23.47;26.39;101734.19;5094410;28;20483;-76
2021/12/12 05:01:53;;;;;;;2.03;1.83;;;19.80;39.60;;;23.48;26.45;101719.91;5094559;28;20058;-76
2021/12/12 05:04:52;;;;;;;2.22;2.00;;;19.80;39.60;;;23.44;26.39;101708.53;5116556;28;20078;-76
2021/12/12 05:07:43;;;;;;;2.53;2.03;;;19.80;39.60;;;23.47;26.33;101713.72;5115942;28;20051;-76
2021/12/12 05:10:29;;;;;;;2.40;1.90;;;19.80;39.60;;;23.47;26.63;101716.38;5098238;28;20043;-76
2021/12/12 05:13:18;;;;;;;2.38;1.73;;;19.80;39.60;;;23.47;26.57;101710.16;5062095;28;20060;-76
2021/12/12 05:15:49;;;;;;;2.50;2.08;;;19.80;39.60;;;23.46;26.55;101711.13;5081062;28;20047;-76
2021/12/12 05:18:29;;;;;;;2.30;2.10;;;19.80;39.60;;;23.45;26.28;101707.56;5098021;28;20134;-76
2021/12/12 05:21:05;;;;;;;2.15;1.90;;;19.80;39.60;;;23.41;26.58;101700.72;5081586;28;20048;-76
2021/12/12 05:23:33;;;;;;;2.63;2.42;;;19.80;39.70;;;23.43;26.63;101700.63;5081301;28;20048;-76
2021/12/12 05:26:17;;;;;;;2.30;2.00;;;19.80;40.20;;;23.39;26.52;101691.94;5080984;28;20083;-76
2021/12/12 05:29:08;;;;;;;2.08;1.85;;;19.80;39.60;;;23.43;26.62;101697.97;5097592;28;20054;-76
2021/12/12 05:31:34;;;;;;;2.20;1.90;;;19.80;39.60;;;23.43;26.56;101701.47;5097777;28;20117;-76
2021/12/12 05:34:02;;;;;;;2.10;1.90;;;19.80;39.70;;;23.43;26.50;101700.63;5081280;28;20146;-76
2021/12/12 05:36:29;;;;;;;2.08;1.88;;;19.80;39.70;;;23.44;26.67;101702.34;5097576;28;20051;-76
2021/12/12 05:38:58;;;;;;;2.13;1.92;;;19.80;39.70;;;23.44;26.64;101703.22;5077446;28;20063;-76
2021/12/12 05:41:25;;;;;;;1.95;1.75;;;19.80;39.70;;;23.42;26.54;101691.78;5114723;28;20070;-76
2021/12/12 05:43:55;;;;;;;2.25;1.85;;;19.80;39.60;;;23.45;26.66;101698.72;5063921;28;20062;-76
2021/12/12 05:46:23;;;;;;;2.22;1.90;;;19.80;39.60;;;23.48;26.43;101703.88;5097921;28;20067;-76
2021/12/12 05:48:51;;;;;;;2.67;2.00;;;19.80;39.60;;;23.46;26.71;101692.44;5096623;28;20050;-76
2021/12/12 05:51:18;;;;;;;2.13;1.77;;;19.80;39.70;;;23.45;26.68;101696.91;5097517;28;20043;-76
2021/12/12 05:53:44;;;;;;;2.40;2.20;;;19.80;39.70;;;23.45;26.38;101702.22;5097551;28;20040;-76
2021/12/12 05:56:11;;;;;;;2.40;1.90;;;19.80;39.60;;;23.42;26.58;101699.78;5097832;28;20044;-76
2021/12/12 05:58:37;;;;;;;3.15;2.13;;;19.80;39.70;;;23.43;26.44;101705.97;5097123;28;20185;-76
2021/12/12 06:01:09;;;;;;;2.33;2.13;;;19.80;39.70;;;23.44;26.55;101711.22;5097690;28;20044;-76
2021/12/12 06:03:40;;;;;;;2.38;2.08;;;19.80;39.70;;;23.43;26.40;101708.63;5097286;28;20051;-76
2021/12/12 06:06:11;;;;;;;2.33;2.13;;;19.80;40.20;;;23.41;26.47;101703.38;5097563;28;20136;-76
2021/12/12 06:08:40;;;;;;;2.33;2.13;;;19.80;39.70;;;23.46;26.44;101708.47;5080296;28;20036;-76
2021/12/12 06:11:06;;;;;;;2.13;1.80;;;19.80;39.70;;;23.44;26.53;101705.88;5097458;28;20055;-76
2021/12/12 06:13:36;;;;;;;1.73;1.63;;;19.80;39.70;;;23.41;26.48;101697.19;5096726;28;20046;-76
2021/12/12 06:16:03;;;;;;;2.22;2.00;;;19.80;39.70;;;23.43;26.52;101700.63;5077040;28;20454;-76
2021/12/12 06:18:36;;;;;;;1.98;1.80;;;19.80;39.70;;;23.39;26.58;101689.28;5096875;28;20044;-76
2021/12/12 06:21:04;;;;;;;1.70;1.60;;;19.80;39.70;;;23.43;26.72;101701.47;5078306;28;20052;-76
2021/12/12 06:23:30;;;;;;;2.00;1.80;;;19.80;39.70;;;23.42;26.50;101698.91;5097288;28;20096;-76
2021/12/12 06:25:56;;;;;;;2.05;1.85;;;19.80;39.70;;;23.41;26.42;101697.19;5097014;28;20040;-76
2021/12/12 06:28:31;;;;;;;2.50;2.05;;;19.80;39.70;;;23.38;26.69;101684.03;5080334;28;20050;-76
2021/12/12 06:30:58;;;;;;;2.75;1.92;;;19.80;40.00;;;23.42;26.47;101685.56;5096889;28;20402;-76
